createdAt,value
2022-09-28T00:02:15.303Z,6.79
2022-09-28T00:05:16.787Z,6.77
2022-09-28T00:08:07.636Z,6.78
2022-09-28T00:10:39.370Z,6.85
2022-09-28T00:16:50.270Z,6.91
2022-09-28T00:19:45.533Z,6.87
2022-09-28T00:25:42.048Z,6.93
2022-09-28T00:31:19.215Z,6.89
2022-09-28T00:34:46.119Z,6.89
2022-09-28T00:36:49.867Z,6.89
2022-09-28T00:39:18.959Z,6.89
2022-09-28T00:45:08.777Z,6.83
2022-09-28T00:48:01.801Z,6.83
2022-09-28T00:50:57.862Z,6.84
2022-09-28T00:53:39.911Z,6.88
2022-09-28T00:56:28.048Z,6.81
2022-09-28T00:59:47.525Z,6.77
2022-09-28T01:02:17.120Z,6.59
2022-09-28T01:04:55.186Z,6.55
2022-09-28T01:07:34.235Z,6.57
2022-09-28T01:13:05.916Z,6.49
2022-09-28T01:15:48.584Z,6.50
2022-09-28T01:18:36.946Z,6.34
2022-09-28T01:21:14.969Z,6.31
2022-09-28T01:24:42.887Z,6.27
2022-09-28T01:27:49.911Z,6.26
2022-09-28T01:30:48.666Z,6.28
2022-09-28T01:34:08.688Z,6.27
2022-09-28T01:37:24.324Z,6.30
2022-09-28T01:40:14.568Z,6.28
2022-09-28T01:46:26.739Z,6.06
2022-09-28T01:49:54.161Z,6.08
2022-09-28T01:53:13.320Z,6.11
2022-09-28T01:56:21.643Z,6.07
2022-09-28T01:59:21.796Z,6.05
2022-09-28T02:02:47.287Z,5.99
2022-09-28T02:09:16.716Z,5.94
2022-09-28T02:12:41.183Z,5.97
2022-09-28T02:15:40.180Z,5.94
2022-09-28T02:24:51.609Z,5.97
2022-09-28T02:28:01.731Z,6.02
2022-09-28T02:31:05.638Z,5.95
2022-09-28T02:34:23.861Z,5.97
2022-09-28T02:37:09.750Z,5.96
2022-09-28T02:39:43.077Z,5.91
2022-09-28T02:42:59.037Z,5.87
2022-09-28T02:45:50.771Z,5.86
2022-09-28T02:49:17.353Z,5.89
2022-09-28T02:51:59.821Z,5.91
2022-09-28T02:55:39.546Z,5.93
2022-09-28T02:59:03.273Z,5.92
2022-09-28T03:01:51.324Z,5.92
2022-09-28T03:04:52.952Z,5.89
2022-09-28T03:08:19.590Z,5.90
2022-09-28T03:11:24.007Z,5.92
2022-09-28T03:13:55.890Z,5.87
2022-09-28T03:16:44.823Z,5.87
2022-09-28T03:19:21.887Z,5.93
2022-09-28T03:22:00.346Z,5.93
2022-09-28T03:24:42.125Z,5.92
2022-09-28T03:27:25.212Z,5.93
2022-09-28T03:30:08.384Z,5.91
2022-09-28T03:33:15.871Z,5.89
2022-09-28T03:35:47.696Z,5.89
2022-09-28T03:39:16.295Z,5.89
2022-09-28T03:42:01.060Z,5.91
2022-09-28T03:44:56.759Z,5.88
2022-09-28T03:48:11.474Z,5.86
2022-09-28T03:51:23.351Z,5.89
2022-09-28T03:54:04.806Z,5.92
2022-09-28T03:57:00.446Z,5.90
2022-09-28T03:59:45.879Z,5.92
2022-09-28T04:02:18.487Z,5.93
2022-09-28T04:04:45.140Z,5.92
2022-09-28T04:07:11.847Z,5.91
2022-09-28T04:10:06.584Z,5.96
2022-09-28T04:13:01.552Z,6.01
2022-09-28T04:18:34.845Z,5.96
2022-09-28T04:21:34.139Z,5.95
2022-09-28T04:24:20.826Z,5.94
2022-09-28T04:27:56.820Z,5.93
2022-09-28T04:30:33.228Z,5.98
2022-09-28T04:33:05.902Z,5.98
2022-09-28T04:35:48.005Z,5.96
2022-09-28T04:38:51.288Z,6.01
2022-09-28T04:41:55.261Z,6.00
2022-09-28T04:44:42.982Z,6.01
2022-09-28T04:47:31.431Z,6.07
2022-09-28T04:50:19.298Z,6.06
2022-09-28T04:53:17.499Z,6.06
2022-09-28T04:56:25.103Z,6.11
2022-09-28T04:59:04.078Z,6.11
2022-09-28T05:01:49.746Z,6.15
2022-09-28T05:04:36.731Z,6.20
2022-09-28T05:10:34.717Z,6.22
2022-09-28T05:13:09.146Z,6.26
2022-09-28T05:16:05.621Z,6.29
2022-09-28T05:18:54.323Z,6.25
2022-09-28T05:21:31.426Z,6.27
2022-09-28T05:24:21.038Z,6.23
2022-09-28T05:27:00.636Z,6.20
2022-09-28T05:29:33.121Z,6.18
2022-09-28T05:32:29.587Z,6.17
2022-09-28T05:35:42.065Z,6.16
2022-09-28T05:38:24.681Z,6.18
2022-09-28T05:41:02.092Z,6.22
2022-09-28T05:43:39.658Z,6.22
2022-09-28T05:46:38.665Z,6.27
2022-09-28T05:49:52.171Z,6.18
2022-09-28T05:52:35.531Z,6.28
2022-09-28T05:55:11.174Z,6.32
2022-09-28T06:04:45.011Z,6.38
2022-09-28T06:14:13.948Z,6.51
2022-09-28T06:16:55.273Z,6.54
2022-09-28T06:19:53.192Z,6.56
2022-09-28T06:22:25.886Z,6.61
2022-09-28T06:25:17.795Z,6.67
2022-09-28T06:28:25.989Z,6.69
2022-09-28T06:31:13.164Z,6.64
2022-09-28T06:34:56.428Z,6.60
2022-09-28T06:40:49.182Z,6.65
2022-09-28T06:44:13.721Z,6.80
2022-09-28T06:50:49.825Z,6.80
2022-09-28T06:56:52.070Z,6.59
2022-09-28T06:59:29.424Z,6.69
2022-09-28T07:03:06.610Z,6.60
2022-09-28T07:10:52.540Z,6.63
2022-09-28T07:14:19.525Z,6.77
2022-09-28T07:17:13.264Z,6.94
2022-09-28T07:20:18.110Z,6.88
2022-09-28T07:23:18.091Z,6.70
2022-09-28T07:34:15.158Z,6.54
2022-09-28T07:37:14.148Z,6.60
2022-09-28T07:40:14.672Z,6.59
2022-09-28T07:49:52.487Z,7.03
2022-09-28T08:00:16.372Z,6.96
2022-09-28T08:02:49.303Z,7.02
2022-09-28T08:06:13.583Z,7.19
2022-09-28T08:09:45.549Z,7.13
2022-09-28T08:12:45.323Z,7.10
2022-09-28T08:16:28.624Z,7.02
2022-09-28T08:26:07.237Z,7.33
2022-09-28T08:28:57.087Z,7.51
2022-09-28T08:35:04.431Z,7.87
2022-09-28T08:50:10.419Z,8.46
2022-09-28T08:54:06.986Z,8.22
2022-09-28T09:00:54.742Z,7.96
2022-09-28T09:03:46.617Z,8.14
2022-09-28T09:07:14.916Z,8.06
2022-09-28T09:11:18.390Z,8.36
2022-09-28T09:18:25.427Z,8.62
2022-09-28T09:21:29.882Z,8.96
2022-09-28T09:37:24.008Z,9.89
2022-09-28T09:44:48.851Z,9.61
2022-09-28T10:04:28.582Z,9.92
2022-09-28T10:12:06.095Z,9.75
2022-09-28T10:20:12.813Z,9.98
2022-09-28T10:23:38.351Z,9.76
2022-09-28T10:26:59.022Z,9.77
2022-09-28T10:42:23.272Z,10.62
2022-09-28T11:03:15.586Z,10.76
2022-09-28T11:10:07.428Z,10.73
2022-09-28T11:16:42.484Z,10.47
2022-09-28T11:22:43.152Z,10.27
2022-09-28T11:26:31.698Z,10.31
2022-09-28T11:33:59.326Z,10.87
2022-09-28T12:33:25.879Z,10.40
2022-09-28T12:49:21.638Z,10.15
2022-09-28T12:52:00.812Z,10.12
2022-09-28T12:56:03.141Z,9.37
2022-09-28T13:08:00.727Z,9.07
2022-09-28T13:27:38.856Z,9.64
2022-09-28T13:39:03.192Z,9.86
2022-09-28T13:41:59.621Z,10.32
2022-09-28T13:54:03.530Z,9.82
2022-09-28T14:00:40.737Z,10.10
2022-09-28T14:04:18.284Z,10.48
2022-09-28T14:14:58.278Z,10.23
2022-09-28T14:24:46.986Z,9.69
2022-09-28T14:32:38.045Z,9.29
2022-09-28T14:43:43.240Z,9.70
2022-09-28T14:47:17.945Z,9.75
2022-09-28T14:50:54.147Z,9.75
2022-09-28T14:53:30.251Z,9.76
2022-09-28T14:56:36.130Z,9.75
2022-09-28T15:03:25.854Z,9.43
2022-09-28T15:13:41.478Z,9.49
2022-09-28T15:16:51.696Z,9.60
2022-09-28T15:20:09.432Z,9.51
2022-09-28T15:23:04.804Z,9.54
2022-09-28T15:33:10.256Z,9.36
2022-09-28T15:36:22.365Z,9.45
2022-09-28T15:39:28.178Z,9.28
2022-09-28T15:50:30.129Z,9.07
2022-09-28T15:53:05.195Z,9.12
2022-09-28T15:55:55.231Z,9.09
2022-09-28T16:02:36.392Z,8.77
2022-09-28T16:07:30.559Z,8.71
2022-09-28T16:10:06.785Z,8.60
2022-09-28T16:23:09.715Z,8.65
2022-09-28T16:43:54.727Z,8.32
2022-09-28T16:50:46.692Z,8.21
2022-09-28T16:53:58.324Z,8.15
2022-09-28T16:56:35.916Z,8.03
2022-09-28T17:02:54.228Z,7.82
2022-09-28T17:09:07.944Z,7.45
2022-09-28T17:15:23.281Z,7.18
2022-09-28T17:18:06.247Z,7.11
2022-09-28T17:21:06.646Z,7.04
2022-09-28T17:24:04.586Z,6.91
2022-09-28T17:29:22.537Z,6.96
2022-09-28T18:00:16.339Z,6.97
2022-09-28T18:03:44.856Z,7.03
2022-09-28T18:11:26.182Z,7.17
2022-09-28T18:14:06.760Z,7.27
2022-09-28T18:24:56.444Z,7.38
2022-09-28T18:27:50.502Z,7.38
2022-09-28T18:30:58.329Z,7.38
2022-09-28T18:37:06.625Z,7.34
2022-09-28T18:40:24.242Z,7.33
2022-09-28T18:44:10.504Z,7.28
2022-09-28T18:46:50.116Z,7.22
2022-09-28T18:49:58.201Z,7.17
2022-09-28T18:53:05.428Z,7.18
2022-09-28T18:56:08.247Z,7.19
2022-09-28T18:59:01.407Z,7.16
2022-09-28T19:01:32.155Z,7.11
2022-09-28T19:04:00.666Z,7.09
2022-09-28T19:06:28.013Z,7.07
2022-09-28T19:09:04.980Z,7.09
2022-09-28T19:11:31.773Z,7.08
2022-09-28T19:13:58.744Z,7.03
2022-09-28T19:16:31.643Z,6.95
2022-09-28T19:18:59.105Z,6.81
2022-09-28T19:21:26.722Z,6.69
2022-09-28T19:23:55.473Z,6.60
2022-09-28T19:26:26.951Z,6.54
2022-09-28T19:28:54.402Z,6.51
2022-09-28T19:31:39.266Z,6.40
2022-09-28T19:34:06.761Z,6.29
2022-09-28T19:36:35.128Z,6.25
2022-09-28T19:39:07.109Z,6.20
2022-09-28T19:41:43.521Z,6.22
2022-09-28T19:44:24.728Z,6.25
2022-09-28T19:46:56.868Z,6.17
2022-09-28T19:49:25.812Z,6.23
2022-09-28T19:52:13.967Z,6.23
2022-09-28T19:54:56.641Z,6.18
2022-09-28T19:57:33.615Z,6.08
2022-09-28T20:00:03.289Z,6.00
2022-09-28T20:02:34.804Z,5.93
2022-09-28T20:05:04.322Z,5.87
2022-09-28T20:07:33.077Z,5.90
2022-09-28T20:09:59.934Z,5.88
2022-09-28T20:12:32.797Z,5.90
2022-09-28T20:14:59.619Z,5.92
2022-09-28T20:17:27.482Z,5.91
2022-09-28T20:19:54.229Z,5.98
2022-09-28T20:22:23.594Z,5.96
2022-09-28T20:24:53.641Z,5.93
2022-09-28T20:27:26.382Z,5.94
2022-09-28T20:29:54.360Z,5.94
2022-09-28T20:32:48.718Z,5.89
2022-09-28T20:35:32.785Z,5.81
2022-09-28T20:38:09.141Z,5.77
2022-09-28T20:41:01.899Z,5.77
2022-09-28T20:43:37.977Z,5.74
2022-09-28T20:46:16.870Z,5.63
2022-09-28T20:48:59.569Z,5.58
2022-09-28T20:51:33.927Z,5.51
2022-09-28T20:54:00.752Z,5.51
2022-09-28T20:56:37.704Z,5.53
2022-09-28T20:59:14.656Z,5.59
2022-09-28T21:01:49.777Z,5.58
2022-09-28T21:04:19.698Z,5.50
2022-09-28T21:06:46.931Z,5.48
2022-09-28T21:09:19.199Z,5.55
2022-09-28T21:11:48.662Z,5.47
2022-09-28T21:14:15.768Z,5.40
2022-09-28T21:16:51.857Z,5.41
2022-09-28T21:19:19.158Z,5.42
2022-09-28T21:21:49.443Z,5.35
2022-09-28T21:24:21.443Z,5.38
2022-09-28T21:26:53.078Z,5.41
2022-09-28T21:29:19.918Z,5.59
2022-09-28T21:31:49.971Z,5.61
2022-09-28T21:34:33.055Z,5.66
2022-09-28T21:37:19.274Z,5.55
2022-09-28T21:45:41.527Z,5.39
2022-09-28T21:48:14.844Z,5.37
2022-09-28T21:50:45.838Z,5.37
2022-09-28T21:53:42.880Z,5.34
2022-09-28T21:56:29.276Z,5.34
2022-09-28T22:02:39.560Z,5.30
2022-09-28T22:05:24.839Z,5.28
2022-09-28T22:07:54.450Z,5.24
2022-09-28T22:10:33.842Z,5.18
2022-09-28T22:13:16.898Z,5.25
2022-09-28T22:15:48.441Z,5.23
2022-09-28T22:18:37.953Z,5.23
2022-09-28T22:21:15.289Z,5.23
2022-09-28T22:23:51.410Z,5.28
2022-09-28T22:26:32.496Z,5.28
2022-09-28T22:29:14.926Z,5.34
2022-09-28T22:31:59.127Z,5.29
2022-09-28T22:34:44.338Z,5.29
2022-09-28T22:37:33.691Z,5.33
2022-09-28T22:40:23.205Z,5.35
2022-09-28T22:43:07.007Z,5.38
2022-09-28T22:45:42.088Z,5.37
2022-09-28T22:48:26.767Z,5.35
2022-09-28T22:51:09.364Z,5.36
2022-09-28T22:53:54.463Z,5.36
2022-09-28T22:56:25.070Z,5.52
2022-09-28T22:59:20.111Z,5.53
2022-09-28T23:01:52.580Z,5.59
2022-09-28T23:04:35.746Z,5.51
2022-09-28T23:07:13.000Z,5.45
2022-09-28T23:09:55.855Z,5.47
2022-09-28T23:12:31.417Z,5.62
2022-09-28T23:15:21.982Z,5.59
2022-09-28T23:18:05.682Z,5.52
2022-09-28T23:20:39.917Z,5.40
2022-09-28T23:23:21.900Z,5.29
2022-09-28T23:25:59.200Z,5.25
2022-09-28T23:29:02.209Z,5.33
2022-09-28T23:38:35.630Z,5.27
2022-09-28T23:41:11.850Z,5.59
2022-09-28T23:44:04.240Z,5.73
2022-09-28T23:46:56.244Z,5.86
2022-09-28T23:50:05.262Z,5.91
2022-09-28T23:52:48.510Z,5.96
2022-09-28T23:55:22.776Z,6.02
2022-09-28T23:58:09.269Z,6.10
